createdAt,value
2023-04-05T00:01:14.317Z,18.50
2023-04-05T00:04:24.142Z,18.73
2023-04-05T00:07:29.842Z,18.23
2023-04-05T00:10:35.160Z,18.25
2023-04-05T00:13:41.084Z,20.08
2023-04-05T00:16:46.549Z,17.38
2023-04-05T00:19:57.721Z,20.58
2023-04-05T00:23:02.828Z,18.63
2023-04-05T00:26:08.321Z,18.85
2023-04-05T00:29:14.741Z,20.63
2023-04-05T00:32:20.296Z,22.52
2023-04-05T00:35:30.076Z,18.75
2023-04-05T00:38:35.427Z,17.40
2023-04-05T00:41:41.204Z,17.67
2023-04-05T00:44:46.674Z,17.02
2023-04-05T00:47:52.066Z,21.25
2023-04-05T00:51:01.022Z,17.35
2023-04-05T00:54:06.658Z,19.05
2023-04-05T00:57:12.689Z,21.00
2023-04-05T01:00:18.513Z,19.02
2023-04-05T01:03:26.246Z,17.60
2023-04-05T01:06:44.483Z,15.23
2023-04-05T01:09:56.000Z,19.17
2023-04-05T01:16:05.797Z,16.70
2023-04-05T01:19:13.668Z,20.35
2023-04-05T01:22:41.017Z,17.38
2023-04-05T01:26:15.551Z,20.60
2023-04-05T01:29:36.495Z,22.13
2023-04-05T01:33:06.567Z,21.05
2023-04-05T01:36:16.957Z,21.48
2023-04-05T01:39:23.442Z,29.75
2023-04-05T01:42:29.592Z,22.65
2023-04-05T01:45:34.876Z,24.85
2023-04-05T01:48:42.796Z,23.92
2023-04-05T01:51:47.807Z,27.35
2023-04-05T01:54:53.005Z,22.85
2023-04-05T01:57:58.808Z,23.45
2023-04-05T02:01:04.161Z,26.10
2023-04-05T02:04:12.083Z,25.55
2023-04-05T02:07:17.473Z,26.05
2023-04-05T02:10:23.106Z,30.13
2023-04-05T02:13:29.208Z,22.98
2023-04-05T02:16:34.655Z,21.05
2023-04-05T02:19:46.699Z,22.98
2023-04-05T02:22:52.132Z,21.38
2023-04-05T02:25:57.563Z,27.02
2023-04-05T02:29:02.845Z,20.90
2023-04-05T02:32:08.963Z,26.73
2023-04-05T02:35:17.581Z,24.23
2023-04-05T02:38:23.358Z,24.10
2023-04-05T02:41:28.668Z,25.73
2023-04-05T02:44:34.097Z,24.67
2023-04-05T02:47:39.487Z,23.15
2023-04-05T02:50:50.497Z,30.20
2023-04-05T02:53:56.555Z,25.92
2023-04-05T02:57:04.386Z,25.88
2023-04-05T03:00:20.287Z,24.58
2023-04-05T03:03:26.601Z,26.92
2023-04-05T03:06:35.141Z,25.50
2023-04-05T03:09:43.450Z,24.38
2023-04-05T03:12:48.766Z,27.83
2023-04-05T03:15:56.901Z,29.25
2023-04-05T03:19:05.834Z,29.50
2023-04-05T03:22:16.417Z,27.52
2023-04-05T03:25:22.284Z,30.88
2023-04-05T03:28:27.959Z,28.05
2023-04-05T03:31:40.015Z,31.33
2023-04-05T03:34:47.906Z,27.75
2023-04-05T03:37:57.825Z,26.50
2023-04-05T03:44:09.341Z,31.25
2023-04-05T03:47:14.784Z,26.45
2023-04-05T03:50:21.037Z,32.78
2023-04-05T03:53:30.155Z,27.60
2023-04-05T03:56:37.367Z,26.45
2023-04-05T03:59:49.899Z,36.85
2023-04-05T04:02:55.990Z,30.90
2023-04-05T04:06:01.981Z,28.33
2023-04-05T04:09:09.869Z,32.15
2023-04-05T04:12:14.926Z,28.17
2023-04-05T04:15:28.986Z,33.83
2023-04-05T04:18:54.611Z,27.85
2023-04-05T04:22:10.771Z,28.15
2023-04-05T04:25:47.370Z,26.67
2023-04-05T04:29:31.616Z,23.77
2023-04-05T04:32:58.284Z,27.55
2023-04-05T04:36:35.423Z,28.02
2023-04-05T04:39:57.627Z,22.90
2023-04-05T04:43:27.552Z,26.88
2023-04-05T04:46:55.294Z,20.85
2023-04-05T04:50:16.950Z,23.02
2023-04-05T04:53:24.207Z,22.35
2023-04-05T04:56:29.993Z,30.60
2023-04-05T04:59:39.795Z,24.20
2023-04-05T05:02:47.271Z,18.88
2023-04-05T05:05:54.473Z,26.58
2023-04-05T05:09:06.828Z,25.20
2023-04-05T05:12:17.669Z,21.08
2023-04-05T05:15:25.954Z,30.90
2023-04-05T05:18:31.081Z,30.08
2023-04-05T05:21:37.085Z,26.88
2023-04-05T05:24:42.882Z,27.52
2023-04-05T05:27:51.482Z,20.45
2023-04-05T05:34:04.878Z,22.35
2023-04-05T05:37:10.405Z,26.75
2023-04-05T05:40:16.692Z,20.70
2023-04-05T05:43:21.859Z,19.83
2023-04-05T05:46:27.354Z,22.70
2023-04-05T05:49:35.455Z,24.30
2023-04-05T05:52:40.726Z,24.67
2023-04-05T05:55:46.307Z,22.38
2023-04-05T05:58:51.517Z,23.90
2023-04-05T06:01:57.561Z,32.28
2023-04-05T06:05:05.802Z,26.80
2023-04-05T06:08:11.478Z,33.00
2023-04-05T06:11:20.608Z,26.35
2023-04-05T06:14:25.773Z,27.10
2023-04-05T06:17:32.003Z,23.70
2023-04-05T06:20:41.541Z,32.28
2023-04-05T06:23:46.967Z,23.65
2023-04-05T06:26:53.316Z,23.52
2023-04-05T06:29:58.658Z,24.17
2023-04-05T06:33:04.473Z,18.23
2023-04-05T06:36:12.961Z,25.73
2023-04-05T06:39:18.517Z,24.10
2023-04-05T06:42:24.579Z,24.02
2023-04-05T06:45:37.608Z,29.50
2023-04-05T06:48:44.559Z,21.95
2023-04-05T06:51:52.460Z,23.00
2023-04-05T06:54:57.704Z,31.50
2023-04-05T06:58:03.092Z,25.45
2023-04-05T07:01:08.722Z,21.92
2023-04-05T07:04:15.866Z,25.77
2023-04-05T07:07:23.593Z,23.23
2023-04-05T07:10:29.273Z,23.00
2023-04-05T07:13:35.825Z,25.13
2023-04-05T07:16:41.181Z,20.38
2023-04-05T07:19:46.664Z,25.17
2023-04-05T07:22:54.326Z,20.38
2023-04-05T07:26:05.062Z,22.27
2023-04-05T07:29:10.789Z,20.13
2023-04-05T07:32:16.351Z,19.90
2023-04-05T07:35:21.704Z,25.80
2023-04-05T07:38:31.447Z,15.25
2023-04-05T07:41:37.454Z,23.02
2023-04-05T07:44:42.794Z,20.65
2023-04-05T07:47:47.915Z,20.45
2023-04-05T07:50:54.639Z,15.55
2023-04-05T07:54:03.260Z,19.83
2023-04-05T07:57:08.971Z,19.00
2023-04-05T08:00:15.856Z,19.20
2023-04-05T08:03:21.449Z,24.20
2023-04-05T08:06:27.488Z,21.95
2023-04-05T08:09:35.334Z,17.23
2023-04-05T08:12:40.817Z,23.55
2023-04-05T08:15:46.080Z,22.08
2023-04-05T08:18:51.436Z,17.08
2023-04-05T08:21:56.929Z,24.08
2023-04-05T08:25:04.967Z,24.77
2023-04-05T08:28:10.441Z,26.85
2023-04-05T08:31:16.305Z,25.30
2023-04-05T08:34:21.987Z,22.02
2023-04-05T08:37:27.410Z,12.32
2023-04-05T08:40:38.929Z,19.52
2023-04-05T08:43:48.287Z,17.13
2023-04-05T08:46:53.687Z,13.45
2023-04-05T08:49:59.499Z,19.60
2023-04-05T08:53:04.761Z,21.48
2023-04-05T08:56:15.042Z,18.77
2023-04-05T08:59:21.599Z,15.85
2023-04-05T09:02:28.150Z,19.27
2023-04-05T09:05:33.758Z,18.67
2023-04-05T09:08:39.511Z,17.48
2023-04-05T09:11:47.592Z,13.82
2023-04-05T09:14:53.772Z,18.75
2023-04-05T09:17:59.748Z,15.55
2023-04-05T09:21:09.900Z,19.98
2023-04-05T09:24:15.997Z,17.65
2023-04-05T09:27:24.085Z,17.88
2023-04-05T09:30:36.215Z,16.40
2023-04-05T09:36:48.560Z,14.95
2023-04-05T09:40:04.825Z,20.42
2023-04-05T09:43:13.265Z,16.23
2023-04-05T09:46:33.023Z,15.52
2023-04-05T09:49:38.210Z,17.45
2023-04-05T09:52:43.491Z,20.13
2023-04-05T09:55:48.692Z,19.23
2023-04-05T09:58:57.106Z,15.70
2023-04-05T10:02:03.136Z,17.70
2023-04-05T10:05:11.831Z,14.65
2023-04-05T10:08:17.288Z,16.25
2023-04-05T10:11:23.665Z,14.95
2023-04-05T10:14:31.540Z,17.95
2023-04-05T10:17:40.819Z,14.05
2023-04-05T10:20:48.405Z,16.65
2023-04-05T10:23:58.291Z,17.02
2023-04-05T10:27:07.973Z,17.23
2023-04-05T10:30:16.322Z,18.38
2023-04-05T10:33:24.451Z,14.45
2023-04-05T10:39:37.785Z,18.92
2023-04-05T10:42:45.256Z,21.45
2023-04-05T10:45:56.011Z,14.30
2023-04-05T10:49:04.367Z,15.55
2023-04-05T10:52:10.230Z,15.80
2023-04-05T10:55:15.947Z,20.30
2023-04-05T10:58:21.711Z,15.77
2023-04-05T11:01:30.552Z,15.43
2023-04-05T11:04:38.227Z,11.48
2023-04-05T11:07:46.529Z,17.38
2023-04-05T11:10:55.437Z,20.45
2023-04-05T11:14:01.341Z,14.38
2023-04-05T11:17:26.666Z,10.93
2023-04-05T11:20:42.951Z,18.95
2023-04-05T11:24:03.825Z,21.38
2023-04-05T11:27:13.018Z,21.48
2023-04-05T11:30:38.285Z,19.85
2023-04-05T11:34:10.748Z,14.30
2023-04-05T11:37:20.116Z,22.35
2023-04-05T11:40:29.891Z,13.63
2023-04-05T11:43:35.906Z,14.65
2023-04-05T11:46:42.411Z,13.65
2023-04-05T11:49:52.236Z,18.25
2023-04-05T11:53:16.654Z,13.98
2023-04-05T11:56:21.855Z,18.50
2023-04-05T11:59:34.420Z,16.42
2023-04-05T12:02:40.071Z,19.10
2023-04-05T12:05:52.017Z,13.55
2023-04-05T12:09:00.238Z,10.70
2023-04-05T12:15:12.229Z,13.43
2023-04-05T12:18:18.342Z,8.83
2023-04-05T12:21:23.921Z,10.18
2023-04-05T12:24:32.082Z,9.07
2023-04-05T12:27:37.325Z,12.38
2023-04-05T12:30:52.241Z,11.77
2023-04-05T12:34:02.676Z,20.85
2023-04-05T12:37:07.911Z,10.65
2023-04-05T12:40:16.232Z,9.15
2023-04-05T12:43:22.828Z,16.27
2023-04-05T12:46:41.553Z,12.73
2023-04-05T12:49:46.834Z,13.95
2023-04-05T12:52:55.640Z,14.73
2023-04-05T12:56:05.258Z,14.07
2023-04-05T12:59:11.820Z,10.57
2023-04-05T13:02:17.215Z,11.80
2023-04-05T13:05:26.896Z,13.20
2023-04-05T13:08:32.390Z,12.80
2023-04-05T13:11:40.367Z,10.73
2023-04-05T13:17:52.550Z,8.65
2023-04-05T13:20:57.824Z,10.88
2023-04-05T13:24:03.232Z,10.00
2023-04-05T13:27:11.252Z,18.33
2023-04-05T13:33:22.101Z,11.82
2023-04-05T13:36:27.952Z,10.93
2023-04-05T13:39:33.188Z,15.40
2023-04-05T13:42:41.494Z,9.85
2023-04-05T13:45:47.070Z,7.03
2023-04-05T13:48:52.368Z,14.57
2023-04-05T13:51:57.723Z,17.65
2023-04-05T13:55:03.791Z,10.75
2023-04-05T13:58:12.159Z,13.07
2023-04-05T14:04:22.596Z,10.25
2023-04-05T14:07:28.260Z,11.50
2023-04-05T14:10:34.507Z,9.45
2023-04-05T14:13:42.430Z,13.75
2023-04-05T14:16:47.554Z,10.45
2023-04-05T14:19:53.053Z,17.65
2023-04-05T14:22:59.073Z,13.60
2023-04-05T14:26:05.767Z,9.45
2023-04-05T14:29:14.046Z,9.40
2023-04-05T14:32:19.369Z,8.63
2023-04-05T14:35:25.159Z,8.52
2023-04-05T14:38:30.717Z,14.73
2023-04-05T14:41:36.404Z,8.50
2023-04-05T14:44:44.247Z,11.95
2023-04-05T14:50:54.859Z,11.43
2023-04-05T14:54:00.446Z,5.78
2023-04-05T14:57:05.703Z,11.25
2023-04-05T15:00:14.816Z,7.10
2023-04-05T15:03:20.941Z,8.55
2023-04-05T15:06:26.660Z,10.48
2023-04-05T15:09:32.130Z,11.48
2023-04-05T15:12:38.032Z,7.93
2023-04-05T15:15:46.090Z,9.60
2023-04-05T15:18:51.615Z,10.18
2023-04-05T15:21:56.943Z,9.35
2023-04-05T15:25:02.954Z,10.20
2023-04-05T15:28:08.475Z,8.48
2023-04-05T15:31:16.627Z,9.82
2023-04-05T15:34:22.082Z,6.78
2023-04-05T15:37:27.737Z,14.82
2023-04-05T15:40:33.758Z,8.57
2023-04-05T15:43:40.719Z,12.63
2023-04-05T15:46:48.965Z,9.20
2023-04-05T15:49:54.785Z,12.73
2023-04-05T15:53:00.137Z,14.00
2023-04-05T15:56:05.670Z,10.52
2023-04-05T15:59:11.737Z,13.30
2023-04-05T16:02:20.603Z,10.18
2023-04-05T16:08:31.169Z,19.35
2023-04-05T16:11:36.849Z,13.65
2023-04-05T16:14:42.685Z,14.85
2023-04-05T16:17:50.757Z,13.15
2023-04-05T16:20:56.549Z,17.65
2023-04-05T16:24:04.230Z,16.75
2023-04-05T16:27:09.814Z,9.73
2023-04-05T16:30:15.668Z,13.05
2023-04-05T16:33:23.973Z,16.70
2023-04-05T16:36:29.163Z,11.10
2023-04-05T16:39:34.694Z,16.23
2023-04-05T16:42:40.189Z,13.45
2023-04-05T16:45:45.453Z,15.02
2023-04-05T16:48:53.682Z,10.60
2023-04-05T16:51:58.990Z,15.65
2023-04-05T16:55:04.776Z,16.67
2023-04-05T16:58:10.003Z,22.75
2023-04-05T17:01:15.579Z,11.88
2023-04-05T17:04:23.762Z,10.65
2023-04-05T17:07:30.540Z,11.23
2023-04-05T17:10:35.956Z,12.23
2023-04-05T17:13:42.428Z,11.18
2023-04-05T17:16:48.518Z,10.88
2023-04-05T17:19:56.667Z,17.55
2023-04-05T17:23:02.306Z,16.15
2023-04-05T17:26:07.762Z,10.57
2023-04-05T17:29:12.978Z,16.92
2023-04-05T17:32:18.338Z,9.95
2023-04-05T17:35:26.501Z,11.75
2023-04-05T17:38:31.668Z,15.93
2023-04-05T17:41:40.298Z,12.43
2023-04-05T17:44:46.294Z,22.63
2023-04-05T17:47:51.757Z,12.07
2023-04-05T17:50:59.731Z,13.98
2023-04-05T17:54:05.315Z,13.65
2023-04-05T17:57:15.682Z,12.52
2023-04-05T18:00:21.760Z,18.65
2023-04-05T18:03:27.792Z,16.33
2023-04-05T18:06:36.460Z,11.52
2023-04-05T18:09:42.624Z,13.43
2023-04-05T18:12:48.476Z,16.83
2023-04-05T18:15:55.396Z,12.93
2023-04-05T18:19:00.939Z,17.33
2023-04-05T18:22:08.931Z,13.70
2023-04-05T18:25:14.706Z,13.65
2023-04-05T18:28:22.750Z,21.58
2023-04-05T18:31:28.975Z,22.02
2023-04-05T18:34:34.214Z,12.48
2023-04-05T18:37:42.275Z,16.70
2023-04-05T18:40:47.768Z,11.73
2023-04-05T18:43:56.155Z,11.63
2023-04-05T18:47:01.515Z,14.90
2023-04-05T18:50:10.213Z,20.52
2023-04-05T18:53:18.328Z,15.93
2023-04-05T18:56:23.643Z,14.30
2023-04-05T18:59:29.927Z,15.88
2023-04-05T19:02:35.312Z,16.23
2023-04-05T19:05:41.031Z,10.30
2023-04-05T19:08:49.931Z,16.02
2023-04-05T19:11:57.017Z,13.45
2023-04-05T19:15:02.380Z,12.48
2023-04-05T19:18:09.303Z,12.85
2023-04-05T19:21:14.733Z,10.52
2023-04-05T19:24:22.880Z,15.73
2023-04-05T19:27:31.056Z,11.75
2023-04-05T19:33:41.543Z,15.40
2023-04-05T19:36:46.976Z,14.30
2023-04-05T19:39:54.704Z,16.02
2023-04-05T19:43:02.283Z,13.38
2023-04-05T19:46:10.564Z,14.52
2023-04-05T19:49:17.011Z,13.85
2023-04-05T19:52:37.301Z,16.70
2023-04-05T19:55:45.691Z,14.20
2023-04-05T19:58:51.657Z,20.65
2023-04-05T20:01:57.061Z,18.58
2023-04-05T20:05:02.480Z,15.43
2023-04-05T20:08:10.763Z,16.17
2023-04-05T20:11:19.912Z,16.90
2023-04-05T20:14:28.128Z,15.77
2023-04-05T20:17:33.743Z,11.35
2023-04-05T20:20:39.741Z,17.25
2023-04-05T20:23:45.824Z,13.52
2023-04-05T20:26:57.062Z,11.55
2023-04-05T20:30:02.768Z,14.10
2023-04-05T20:33:09.590Z,12.52
2023-04-05T20:36:15.241Z,10.65
2023-04-05T20:39:20.733Z,12.48
2023-04-05T20:42:29.027Z,15.75
2023-04-05T20:45:34.158Z,8.70
2023-04-05T20:48:40.133Z,15.18
2023-04-05T20:51:45.346Z,12.55
2023-04-05T20:54:51.673Z,14.40
2023-04-05T20:57:59.503Z,22.05
2023-04-05T21:01:06.606Z,17.48
2023-04-05T21:04:12.113Z,11.90
2023-04-05T21:07:18.219Z,13.10
2023-04-05T21:10:23.774Z,13.25
2023-04-05T21:13:31.612Z,12.57
2023-04-05T21:16:36.997Z,14.63
2023-04-05T21:19:42.329Z,9.73
2023-04-05T21:22:47.816Z,10.80
2023-04-05T21:25:53.379Z,18.17
2023-04-05T21:29:01.342Z,14.73
2023-04-05T21:32:06.767Z,16.42
2023-04-05T21:35:12.617Z,13.00
2023-04-05T21:38:18.211Z,10.70
2023-04-05T21:41:23.720Z,12.73
2023-04-05T21:44:31.574Z,11.70
2023-04-05T21:47:37.002Z,10.73
2023-04-05T21:50:42.451Z,10.35
2023-04-05T21:53:48.347Z,11.55
2023-04-05T21:56:53.762Z,14.95
2023-04-05T22:00:01.676Z,12.68
2023-04-05T22:03:07.420Z,14.18
2023-04-05T22:06:12.866Z,13.35
2023-04-05T22:09:18.487Z,10.65
2023-04-05T22:12:24.136Z,12.82
2023-04-05T22:15:32.495Z,11.13
2023-04-05T22:18:37.831Z,15.52
2023-04-05T22:21:43.481Z,18.15
2023-04-05T22:24:49.322Z,12.45
2023-04-05T22:28:00.262Z,12.70
2023-04-05T22:31:08.348Z,15.00
2023-04-05T22:34:14.069Z,9.73
2023-04-05T22:37:19.609Z,11.55
2023-04-05T22:40:27.213Z,19.92
2023-04-05T22:43:32.700Z,13.45
2023-04-05T22:46:40.699Z,13.02
2023-04-05T22:49:46.071Z,12.45
2023-04-05T22:52:51.442Z,12.88
2023-04-05T22:55:57.075Z,9.88
2023-04-05T22:59:02.615Z,13.00
2023-04-05T23:02:12.663Z,12.75
2023-04-05T23:05:18.072Z,15.70
2023-04-05T23:08:24.569Z,10.05
2023-04-05T23:11:30.013Z,11.95
2023-04-05T23:14:35.633Z,10.30
2023-04-05T23:17:43.910Z,11.70
2023-04-05T23:20:49.507Z,9.23
2023-04-05T23:23:54.617Z,11.57
2023-04-05T23:27:00.181Z,8.93
2023-04-05T23:30:05.481Z,10.07
2023-04-05T23:33:13.923Z,9.45
2023-04-05T23:36:19.239Z,11.73
2023-04-05T23:39:24.740Z,11.77
2023-04-05T23:42:30.040Z,12.15
2023-04-05T23:45:36.097Z,11.43
2023-04-05T23:48:44.411Z,13.10
2023-04-05T23:51:49.965Z,13.43
2023-04-05T23:54:55.108Z,8.70
2023-04-05T23:58:01.654Z,10.77
